createdAt,value
2023-02-11T00:01:21.664Z,-7.87
2023-02-11T00:03:49.806Z,-7.84
2023-02-11T00:06:17.783Z,-7.82
2023-02-11T00:08:46.210Z,-7.84
2023-02-11T00:11:17.367Z,-7.84
2023-02-11T00:13:46.193Z,-7.86
2023-02-11T00:16:17.574Z,-7.91
2023-02-11T00:18:46.368Z,-7.97
2023-02-11T00:21:18.045Z,-8.05
2023-02-11T00:23:46.731Z,-8.13
2023-02-11T00:26:21.373Z,-8.19
2023-02-11T00:28:51.073Z,-8.24
2023-02-11T00:31:20.983Z,-8.25
2023-02-11T00:33:49.183Z,-8.24
2023-02-11T00:36:21.178Z,-8.21
2023-02-11T00:38:50.641Z,-8.15
2023-02-11T00:41:19.100Z,-8.08
2023-02-11T00:43:47.589Z,-7.99
2023-02-11T00:46:16.185Z,-7.89
2023-02-11T00:48:44.687Z,-7.81
2023-02-11T00:51:13.815Z,-7.76
2023-02-11T00:53:41.781Z,-7.71
2023-02-11T00:56:09.892Z,-7.66
2023-02-11T00:58:38.562Z,-7.64
2023-02-11T01:01:06.670Z,-7.66
2023-02-11T01:03:35.191Z,-7.66
2023-02-11T01:06:03.309Z,-7.67
2023-02-11T01:08:31.500Z,-7.71
2023-02-11T01:11:03.485Z,-7.75
2023-02-11T01:13:35.167Z,-7.80
2023-02-11T01:16:07.432Z,-7.85
2023-02-11T01:18:36.424Z,-7.91
2023-02-11T01:21:04.803Z,-7.97
2023-02-11T01:23:32.701Z,-8.04
2023-02-11T01:26:00.712Z,-8.09
2023-02-11T01:28:30.476Z,-8.15
2023-02-11T01:31:00.116Z,-8.19
2023-02-11T01:33:28.970Z,-8.24
2023-02-11T01:36:01.982Z,-8.24
2023-02-11T01:38:30.521Z,-8.23
2023-02-11T01:41:04.793Z,-8.22
2023-02-11T01:43:36.436Z,-8.29
2023-02-11T01:46:07.132Z,-8.31
2023-02-11T01:48:39.299Z,-8.31
2023-02-11T01:51:13.730Z,-8.37
2023-02-11T01:54:02.102Z,-8.37
2023-02-11T01:56:50.176Z,-8.35
2023-02-11T01:59:24.625Z,-8.36
2023-02-11T02:01:58.957Z,-8.39
2023-02-11T02:04:32.102Z,-8.50
2023-02-11T02:07:08.891Z,-8.60
2023-02-11T02:09:44.530Z,-8.69
2023-02-11T02:12:12.483Z,-8.80
2023-02-11T02:14:41.900Z,-8.88
2023-02-11T02:17:38.201Z,-8.96
2023-02-11T02:20:09.083Z,-9.00
2023-02-11T02:23:06.151Z,-9.02
2023-02-11T02:25:49.553Z,-9.03
2023-02-11T02:29:09.462Z,-9.04
2023-02-11T02:32:05.148Z,-9.00
2023-02-11T02:34:58.644Z,-8.94
2023-02-11T02:37:42.029Z,-8.89
2023-02-11T02:40:17.100Z,-8.86
2023-02-11T02:42:46.440Z,-8.81
2023-02-11T02:45:14.969Z,-8.75
2023-02-11T02:47:42.872Z,-8.72
2023-02-11T02:50:15.012Z,-8.72
2023-02-11T02:53:00.776Z,-8.78
2023-02-11T02:56:03.433Z,-8.88
2023-02-11T02:59:00.073Z,-9.03
2023-02-11T03:01:47.320Z,-9.16
2023-02-11T03:04:27.173Z,-9.25
2023-02-11T03:07:03.233Z,-9.30
2023-02-11T03:09:44.527Z,-9.36
2023-02-11T03:12:14.736Z,-9.39
2023-02-11T03:14:44.137Z,-9.40
2023-02-11T03:17:15.069Z,-9.39
2023-02-11T03:19:46.186Z,-9.34
2023-02-11T03:22:27.249Z,-9.27
2023-02-11T03:24:56.309Z,-9.19
2023-02-11T03:27:36.861Z,-9.14
2023-02-11T03:30:40.655Z,-9.09
2023-02-11T03:33:24.365Z,-9.07
2023-02-11T03:36:04.843Z,-9.06
2023-02-11T03:38:37.647Z,-9.02
2023-02-11T03:41:08.244Z,-9.01
2023-02-11T03:43:42.722Z,-9.02
2023-02-11T03:46:13.579Z,-9.02
2023-02-11T03:48:47.446Z,-9.03
2023-02-11T03:51:17.126Z,-9.03
2023-02-11T03:53:47.201Z,-9.03
2023-02-11T03:56:19.887Z,-9.04
2023-02-11T03:58:49.073Z,-9.07
2023-02-11T04:01:17.213Z,-9.15
2023-02-11T04:03:45.145Z,-9.23
2023-02-11T04:06:13.048Z,-9.30
2023-02-11T04:08:40.929Z,-9.36
2023-02-11T04:11:08.976Z,-9.43
2023-02-11T04:13:36.898Z,-9.49
2023-02-11T04:16:05.024Z,-9.49
2023-02-11T04:18:33.025Z,-9.49
2023-02-11T04:21:01.036Z,-9.48
2023-02-11T04:23:29.309Z,-9.48
2023-02-11T04:25:57.408Z,-9.45
2023-02-11T04:28:26.957Z,-9.42
2023-02-11T04:30:55.898Z,-9.39
2023-02-11T04:33:24.510Z,-9.39
2023-02-11T04:35:52.700Z,-9.42
2023-02-11T04:38:24.127Z,-9.44
2023-02-11T04:40:52.084Z,-9.38
2023-02-11T04:43:20.040Z,-9.32
2023-02-11T04:45:48.441Z,-9.29
2023-02-11T04:48:16.771Z,-9.26
2023-02-11T04:50:44.693Z,-9.21
2023-02-11T04:53:12.606Z,-9.19
2023-02-11T04:55:40.600Z,-9.22
2023-02-11T04:58:08.551Z,-9.26
2023-02-11T05:00:36.500Z,-9.33
2023-02-11T05:03:04.386Z,-9.36
2023-02-11T05:05:32.379Z,-9.44
2023-02-11T05:08:00.420Z,-9.56
2023-02-11T05:10:28.710Z,-9.63
2023-02-11T05:12:56.580Z,-9.68
2023-02-11T05:15:24.638Z,-9.71
2023-02-11T05:17:52.777Z,-9.77
2023-02-11T05:20:21.349Z,-9.80
2023-02-11T05:22:49.432Z,-9.79
2023-02-11T05:25:17.553Z,-9.77
2023-02-11T05:27:45.512Z,-9.74
2023-02-11T05:30:14.737Z,-9.65
2023-02-11T05:32:42.785Z,-9.60
2023-02-11T05:35:10.646Z,-9.60
2023-02-11T05:37:38.697Z,-9.57
2023-02-11T05:40:06.848Z,-9.54
2023-02-11T05:42:35.303Z,-9.54
2023-02-11T05:45:04.289Z,-9.51
2023-02-11T05:47:32.261Z,-9.45
2023-02-11T05:50:00.352Z,-9.40
2023-02-11T05:52:28.401Z,-9.34
2023-02-11T05:54:56.293Z,-9.25
2023-02-11T05:57:24.224Z,-9.21
2023-02-11T05:59:52.194Z,-9.20
2023-02-11T06:02:20.161Z,-9.23
2023-02-11T06:04:48.336Z,-9.28
2023-02-11T06:07:20.508Z,-9.34
2023-02-11T06:09:57.628Z,-9.37
2023-02-11T06:12:26.865Z,-9.41
2023-02-11T06:14:54.765Z,-9.47
2023-02-11T06:17:23.449Z,-9.49
2023-02-11T06:19:51.506Z,-9.45
2023-02-11T06:22:19.568Z,-9.43
2023-02-11T06:25:01.433Z,-9.40
2023-02-11T06:27:30.640Z,-9.40
2023-02-11T06:30:03.104Z,-9.30
2023-02-11T06:32:45.146Z,-9.20
2023-02-11T06:35:14.936Z,-9.07
2023-02-11T06:37:43.109Z,-8.93
2023-02-11T06:40:12.779Z,-8.80
2023-02-11T06:42:40.868Z,-8.71
2023-02-11T06:45:11.035Z,-8.61
2023-02-11T06:47:42.229Z,-8.53
2023-02-11T06:50:14.185Z,-8.49
2023-02-11T06:52:43.151Z,-8.49
2023-02-11T06:55:11.149Z,-8.49
2023-02-11T06:57:39.312Z,-8.52
2023-02-11T07:00:08.994Z,-8.55
2023-02-11T07:02:37.257Z,-8.59
2023-02-11T07:05:07.443Z,-8.63
2023-02-11T07:07:35.737Z,-8.60
2023-02-11T07:10:04.614Z,-8.59
2023-02-11T07:12:32.771Z,-8.57
2023-02-11T07:15:00.777Z,-8.52
2023-02-11T07:17:28.849Z,-8.45
2023-02-11T07:19:56.894Z,-8.32
2023-02-11T07:22:24.987Z,-8.21
2023-02-11T07:24:52.968Z,-8.11
2023-02-11T07:27:20.828Z,-7.99
2023-02-11T07:29:48.831Z,-7.86
2023-02-11T07:32:17.355Z,-7.77
2023-02-11T07:34:45.610Z,-7.71
2023-02-11T07:37:13.791Z,-7.64
2023-02-11T07:39:41.846Z,-7.56
2023-02-11T07:42:09.890Z,-7.43
2023-02-11T07:44:38.018Z,-7.29
2023-02-11T07:47:09.008Z,-7.16
2023-02-11T07:49:37.065Z,-7.07
2023-02-11T07:52:05.210Z,-7.03
2023-02-11T07:54:33.252Z,-7.04
2023-02-11T07:57:03.789Z,-6.99
2023-02-11T07:59:40.314Z,-6.95
2023-02-11T08:02:09.728Z,-6.99
2023-02-11T08:04:37.759Z,-7.00
2023-02-11T08:07:06.910Z,-6.95
2023-02-11T08:09:34.850Z,-6.88
2023-02-11T08:12:03.017Z,-6.81
2023-02-11T08:14:33.481Z,-6.67
2023-02-11T08:17:02.165Z,-6.48
2023-02-11T08:19:30.341Z,-6.29
2023-02-11T08:21:59.785Z,-6.09
2023-02-11T08:24:27.983Z,-5.89
2023-02-11T08:26:56.494Z,-5.71
2023-02-11T08:29:26.297Z,-5.60
2023-02-11T08:31:54.624Z,-5.55
2023-02-11T08:34:22.823Z,-5.51
2023-02-11T08:36:50.898Z,-5.49
2023-02-11T08:39:21.576Z,-5.47
2023-02-11T08:41:52.897Z,-5.39
2023-02-11T08:44:21.861Z,-5.34
2023-02-11T08:46:51.814Z,-5.28
2023-02-11T08:49:21.323Z,-5.18
2023-02-11T08:51:50.752Z,-5.09
2023-02-11T08:54:19.106Z,-5.00
2023-02-11T08:56:52.315Z,-4.91
2023-02-11T08:59:20.775Z,-4.85
2023-02-11T09:01:50.959Z,-4.78
2023-02-11T09:04:22.306Z,-4.70
2023-02-11T09:06:50.489Z,-4.62
2023-02-11T09:09:19.659Z,-4.55
2023-02-11T09:11:48.297Z,-4.54
2023-02-11T09:14:22.402Z,-4.49
2023-02-11T09:17:10.386Z,-4.46
2023-02-11T09:19:40.440Z,-4.40
2023-02-11T09:22:09.236Z,-4.36
2023-02-11T09:24:37.695Z,-4.32
2023-02-11T09:27:16.673Z,-4.30
2023-02-11T09:29:52.095Z,-4.27
2023-02-11T09:32:40.055Z,-4.24
2023-02-11T09:35:08.600Z,-4.22
2023-02-11T09:37:37.493Z,-4.29
2023-02-11T09:40:06.811Z,-4.28
2023-02-11T09:43:21.296Z,-4.23
2023-02-11T09:46:05.117Z,-4.18
2023-02-11T09:48:42.043Z,-4.13
2023-02-11T09:51:44.547Z,-4.07
2023-02-11T09:54:23.685Z,-4.08
2023-02-11T09:56:55.389Z,-4.03
2023-02-11T09:59:23.634Z,-3.99
2023-02-11T10:01:59.363Z,-3.93
2023-02-11T10:04:41.214Z,-3.89
2023-02-11T10:07:37.557Z,-3.87
2023-02-11T10:10:36.192Z,-3.85
2023-02-11T10:13:26.353Z,-3.84
2023-02-11T10:16:14.096Z,-3.78
2023-02-11T10:19:00.435Z,-3.72
2023-02-11T10:21:43.810Z,-3.64
2023-02-11T10:24:17.075Z,-3.58
2023-02-11T10:26:46.054Z,-3.52
2023-02-11T10:29:26.276Z,-3.44
2023-02-11T10:31:56.576Z,-3.39
2023-02-11T10:34:26.097Z,-3.33
2023-02-11T10:36:54.100Z,-3.25
2023-02-11T10:39:26.208Z,-3.19
2023-02-11T10:42:00.431Z,-3.11
2023-02-11T10:44:34.982Z,-3.03
2023-02-11T10:47:24.002Z,-2.95
2023-02-11T10:49:52.188Z,-2.88
2023-02-11T10:52:22.084Z,-2.79
2023-02-11T10:54:58.491Z,-2.68
2023-02-11T10:57:31.740Z,-2.56
2023-02-11T11:00:06.615Z,-2.44
2023-02-11T11:02:38.897Z,-2.35
2023-02-11T11:05:17.282Z,-2.36
2023-02-11T11:08:13.748Z,-2.37
2023-02-11T11:10:44.912Z,-2.39
2023-02-11T11:13:28.135Z,-2.35
2023-02-11T11:16:25.403Z,-2.27
2023-02-11T11:19:08.413Z,-2.21
2023-02-11T11:21:44.446Z,-2.15
2023-02-11T11:24:22.597Z,-2.06
2023-02-11T11:26:54.307Z,-1.98
2023-02-11T11:29:37.048Z,-1.91
2023-02-11T11:32:20.523Z,-1.89
2023-02-11T11:34:54.166Z,-1.91
2023-02-11T11:37:33.061Z,-1.89
2023-02-11T11:40:26.830Z,-1.92
2023-02-11T11:43:13.184Z,-1.88
2023-02-11T11:46:01.173Z,-1.83
2023-02-11T11:48:40.200Z,-1.80
2023-02-11T11:51:13.399Z,-1.77
2023-02-11T11:53:41.263Z,-1.79
2023-02-11T11:56:18.313Z,-1.78
2023-02-11T11:58:46.311Z,-1.77
2023-02-11T12:01:39.343Z,-1.75
2023-02-11T12:04:25.514Z,-1.71
2023-02-11T12:06:59.334Z,-1.64
2023-02-11T12:09:40.253Z,-1.58
2023-02-11T12:12:26.837Z,-1.53
2023-02-11T12:15:19.851Z,-1.47
2023-02-11T12:18:10.657Z,-1.40
2023-02-11T12:21:03.627Z,-1.32
2023-02-11T12:23:55.443Z,-1.23
2023-02-11T12:26:31.534Z,-1.18
2023-02-11T12:29:33.544Z,-1.15
2023-02-11T12:32:04.455Z,-1.11
2023-02-11T12:34:43.165Z,-1.08
2023-02-11T12:37:48.702Z,-1.07
2023-02-11T12:40:43.732Z,-1.06
2023-02-11T12:43:26.992Z,-1.03
2023-02-11T12:46:25.957Z,-1.00
2023-02-11T12:49:15.376Z,-0.99
2023-02-11T12:51:58.307Z,-0.96
2023-02-11T12:54:35.683Z,-0.92
2023-02-11T12:57:06.264Z,-0.89
2023-02-11T13:00:19.780Z,-0.84
2023-02-11T13:03:05.545Z,-0.82
2023-02-11T13:05:40.830Z,-0.83
2023-02-11T13:08:15.959Z,-0.86
2023-02-11T13:10:49.860Z,-0.86
2023-02-11T13:13:34.983Z,-0.85
2023-02-11T13:16:39.804Z,-0.85
2023-02-11T13:19:13.558Z,-0.88
2023-02-11T13:22:06.090Z,-0.88
2023-02-11T13:24:58.343Z,-0.84
2023-02-11T13:27:44.217Z,-0.84
2023-02-11T13:30:31.546Z,-0.84
2023-02-11T13:33:02.333Z,-0.84
2023-02-11T13:35:31.899Z,-0.84
2023-02-11T13:38:03.477Z,-0.85
2023-02-11T13:40:39.858Z,-0.85
2023-02-11T13:43:21.829Z,-0.86
2023-02-11T13:45:52.418Z,-0.86
2023-02-11T13:48:32.038Z,-0.83
2023-02-11T13:51:10.919Z,-0.80
2023-02-11T13:53:49.306Z,-0.80
2023-02-11T13:56:41.082Z,-0.79
2023-02-11T13:59:27.671Z,-0.78
2023-02-11T14:02:35.411Z,-0.77
2023-02-11T14:05:24.860Z,-0.75
2023-02-11T14:08:29.986Z,-0.75
2023-02-11T14:10:58.956Z,-0.81
2023-02-11T14:13:31.283Z,-0.88
2023-02-11T14:16:07.218Z,-0.98
2023-02-11T14:18:45.302Z,-1.03
2023-02-11T14:21:23.935Z,-1.04
2023-02-11T14:23:56.111Z,-1.04
2023-02-11T14:26:42.555Z,-1.06
2023-02-11T14:29:22.916Z,-1.08
2023-02-11T14:31:53.823Z,-1.09
2023-02-11T14:34:30.949Z,-1.10
2023-02-11T14:37:33.954Z,-1.12
2023-02-11T14:40:22.807Z,-1.16
2023-02-11T14:42:53.986Z,-1.19
2023-02-11T14:45:27.394Z,-1.20
2023-02-11T14:48:16.333Z,-1.22
2023-02-11T14:50:54.348Z,-1.24
2023-02-11T14:53:25.516Z,-1.27
2023-02-11T14:55:55.666Z,-1.30
2023-02-11T14:58:32.224Z,-1.32
2023-02-11T15:01:25.862Z,-1.35
2023-02-11T15:03:56.841Z,-1.39
2023-02-11T15:06:38.293Z,-1.44
2023-02-11T15:09:29.434Z,-1.49
2023-02-11T15:11:57.799Z,-1.54
2023-02-11T15:14:33.104Z,-1.59
2023-02-11T15:17:08.211Z,-1.64
2023-02-11T15:19:41.285Z,-1.69
2023-02-11T15:22:33.010Z,-1.76
2023-02-11T15:25:07.489Z,-1.83
2023-02-11T15:27:40.230Z,-1.89
2023-02-11T15:30:31.030Z,-1.96
2023-02-11T15:33:03.045Z,-2.02
2023-02-11T15:35:40.934Z,-2.08
2023-02-11T15:38:12.897Z,-2.12
2023-02-11T15:40:40.931Z,-2.19
2023-02-11T15:43:10.714Z,-2.25
2023-02-11T15:46:01.408Z,-2.30
2023-02-11T15:48:42.393Z,-2.36
2023-02-11T15:51:38.769Z,-2.41
2023-02-11T15:54:18.562Z,-2.46
2023-02-11T15:56:50.844Z,-2.51
2023-02-11T15:59:39.327Z,-2.56
2023-02-11T16:02:16.167Z,-2.63
2023-02-11T16:05:17.311Z,-2.69
2023-02-11T16:07:50.704Z,-2.76
2023-02-11T16:10:20.798Z,-2.81
2023-02-11T16:13:12.059Z,-2.85
2023-02-11T16:15:46.943Z,-2.87
2023-02-11T16:18:38.254Z,-2.88
2023-02-11T16:21:16.070Z,-2.89
2023-02-11T16:23:51.644Z,-2.90
2023-02-11T16:26:52.975Z,-2.89
2023-02-11T16:29:26.342Z,-2.88
2023-02-11T16:32:07.181Z,-2.88
2023-02-11T16:34:35.465Z,-2.87
2023-02-11T16:37:08.110Z,-2.85
2023-02-11T16:39:38.904Z,-2.85
2023-02-11T16:42:08.304Z,-2.83
2023-02-11T16:44:36.398Z,-2.83
2023-02-11T16:47:08.092Z,-2.82
2023-02-11T16:49:40.683Z,-2.80
2023-02-11T16:52:13.818Z,-2.79
2023-02-11T16:54:41.985Z,-2.79
2023-02-11T16:57:21.934Z,-2.80
2023-02-11T16:59:50.424Z,-2.82
2023-02-11T17:02:18.324Z,-2.86
2023-02-11T17:04:47.048Z,-2.90
2023-02-11T17:07:15.158Z,-2.95
2023-02-11T17:09:43.115Z,-2.99
2023-02-11T17:12:11.031Z,-3.03
2023-02-11T17:14:39.045Z,-3.05
2023-02-11T17:17:08.072Z,-3.05
2023-02-11T17:19:36.871Z,-3.03
2023-02-11T17:22:05.547Z,-2.99
2023-02-11T17:24:33.558Z,-2.95
2023-02-11T17:27:01.528Z,-2.91
2023-02-11T17:29:29.661Z,-2.90
2023-02-11T17:32:02.837Z,-2.88
2023-02-11T17:34:32.447Z,-2.87
2023-02-11T17:37:01.520Z,-2.88
2023-02-11T17:39:29.482Z,-2.89
2023-02-11T17:41:57.491Z,-2.91
2023-02-11T17:44:25.566Z,-2.93
2023-02-11T17:46:56.256Z,-2.96
2023-02-11T17:49:24.435Z,-3.03
2023-02-11T17:51:52.409Z,-3.07
2023-02-11T17:54:20.784Z,-3.10
2023-02-11T17:56:50.856Z,-3.12
2023-02-11T17:59:19.818Z,-3.14
2023-02-11T18:01:48.512Z,-3.16
2023-02-11T18:04:19.320Z,-3.17
2023-02-11T18:09:40.640Z,-3.20
2023-02-11T18:12:09.588Z,-3.20
2023-02-11T18:14:41.683Z,-3.19
2023-02-11T18:17:10.010Z,-3.17
2023-02-11T18:19:38.268Z,-3.14
2023-02-11T18:22:06.722Z,-3.09
2023-02-11T18:24:35.031Z,-3.04
2023-02-11T18:27:03.337Z,-2.98
2023-02-11T18:29:31.608Z,-2.93
2023-02-11T18:31:59.775Z,-2.89
2023-02-11T18:34:31.731Z,-2.85
2023-02-11T18:37:04.149Z,-2.81
2023-02-11T18:39:42.906Z,-2.76
2023-02-11T18:42:11.149Z,-2.72
2023-02-11T18:44:39.640Z,-2.70
2023-02-11T18:47:07.773Z,-2.69
2023-02-11T18:49:36.392Z,-2.68
2023-02-11T18:52:05.899Z,-2.68
2023-02-11T18:54:36.060Z,-2.69
2023-02-11T18:57:04.310Z,-2.71
2023-02-11T18:59:32.455Z,-2.74
2023-02-11T19:02:00.796Z,-2.77
2023-02-11T19:04:29.249Z,-2.79
2023-02-11T19:06:57.354Z,-2.82
2023-02-11T19:09:25.466Z,-2.84
2023-02-11T19:11:54.587Z,-2.88
2023-02-11T19:14:26.260Z,-2.92
2023-02-11T19:16:57.368Z,-2.95
2023-02-11T19:19:28.812Z,-2.97
2023-02-11T19:21:58.304Z,-2.98
2023-02-11T19:24:29.596Z,-2.98
2023-02-11T19:27:01.172Z,-2.97
2023-02-11T19:29:32.532Z,-2.96
2023-02-11T19:32:01.537Z,-2.94
2023-02-11T19:34:29.732Z,-2.91
2023-02-11T19:37:00.929Z,-2.88
2023-02-11T19:39:35.451Z,-2.86
2023-02-11T19:42:06.588Z,-2.83
2023-02-11T19:44:34.723Z,-2.80
2023-02-11T19:47:03.334Z,-2.80
2023-02-11T19:49:34.273Z,-2.82
2023-02-11T19:52:02.611Z,-2.84
2023-02-11T19:54:44.672Z,-2.87
2023-02-11T19:57:23.746Z,-2.92
2023-02-11T19:59:55.088Z,-2.91
2023-02-11T20:02:31.978Z,-2.94
2023-02-11T20:05:00.435Z,-2.95
2023-02-11T20:07:31.536Z,-2.95
2023-02-11T20:10:00.187Z,-2.96
2023-02-11T20:12:29.304Z,-2.97
2023-02-11T20:14:57.897Z,-2.96
2023-02-11T20:17:26.235Z,-2.96
2023-02-11T20:19:54.243Z,-2.93
2023-02-11T20:22:22.230Z,-2.89
2023-02-11T20:24:50.264Z,-2.85
2023-02-11T20:27:20.067Z,-2.83
2023-02-11T20:29:48.280Z,-2.80
2023-02-11T20:32:16.302Z,-2.78
2023-02-11T20:34:44.588Z,-2.76
2023-02-11T20:37:12.776Z,-2.75
2023-02-11T20:39:44.817Z,-2.76
2023-02-11T20:42:15.170Z,-2.76
2023-02-11T20:44:43.313Z,-2.76
2023-02-11T20:47:12.341Z,-2.78
2023-02-11T20:49:40.405Z,-2.81
2023-02-11T20:52:08.700Z,-2.83
2023-02-11T20:54:39.127Z,-2.86
2023-02-11T20:57:17.740Z,-2.87
2023-02-11T20:59:49.170Z,-2.86
2023-02-11T21:02:21.871Z,-2.87
2023-02-11T21:04:51.663Z,-2.87
2023-02-11T21:07:20.087Z,-2.85
2023-02-11T21:10:02.361Z,-2.80
2023-02-11T21:12:30.728Z,-2.75
2023-02-11T21:14:59.260Z,-2.70
2023-02-11T21:17:27.627Z,-2.65
2023-02-11T21:19:55.675Z,-2.61
2023-02-11T21:22:24.248Z,-2.57
2023-02-11T21:24:52.675Z,-2.54
2023-02-11T21:27:21.429Z,-2.55
2023-02-11T21:29:54.422Z,-2.57
2023-02-11T21:32:22.997Z,-2.58
2023-02-11T21:34:54.324Z,-2.58
2023-02-11T21:37:23.597Z,-2.60
2023-02-11T21:39:51.516Z,-2.62
2023-02-11T21:42:19.467Z,-2.64
2023-02-11T21:44:47.524Z,-2.65
2023-02-11T21:47:15.865Z,-2.67
2023-02-11T21:49:44.135Z,-2.68
2023-02-11T21:52:12.062Z,-2.70
2023-02-11T21:54:39.993Z,-2.74
2023-02-11T21:57:08.000Z,-2.76
2023-02-11T21:59:36.410Z,-2.80
2023-02-11T22:02:04.520Z,-2.80
2023-02-11T22:04:33.587Z,-2.81
2023-02-11T22:07:03.087Z,-2.80
2023-02-11T22:09:31.035Z,-2.78
2023-02-11T22:12:01.923Z,-2.75
2023-02-11T22:14:32.422Z,-2.71
2023-02-11T22:17:00.492Z,-2.68
2023-02-11T22:19:28.545Z,-2.64
2023-02-11T22:21:56.509Z,-2.63
2023-02-11T22:24:26.622Z,-2.65
2023-02-11T22:26:54.624Z,-2.65
2023-02-11T22:29:22.975Z,-2.64
2023-02-11T22:31:51.016Z,-2.64
2023-02-11T22:34:18.999Z,-2.65
2023-02-11T22:36:47.083Z,-2.63
2023-02-11T22:39:17.652Z,-2.64
2023-02-11T22:41:47.363Z,-2.64
2023-02-11T22:44:17.268Z,-2.64
2023-02-11T22:46:54.122Z,-2.67
2023-02-11T22:49:22.206Z,-2.71
2023-02-11T22:52:03.163Z,-2.75
2023-02-11T22:54:31.757Z,-2.76
2023-02-11T22:57:00.264Z,-2.78
2023-02-11T22:59:28.369Z,-2.79
2023-02-11T23:01:56.433Z,-2.80
2023-02-11T23:04:24.541Z,-2.79
2023-02-11T23:06:52.670Z,-2.79
2023-02-11T23:09:20.594Z,-2.77
2023-02-11T23:11:49.487Z,-2.74
2023-02-11T23:14:17.398Z,-2.71
2023-02-11T23:16:45.456Z,-2.71
2023-02-11T23:19:13.581Z,-2.73
2023-02-11T23:21:41.689Z,-2.74
2023-02-11T23:24:15.619Z,-2.74
2023-02-11T23:26:43.848Z,-2.72
2023-02-11T23:29:12.516Z,-2.71
2023-02-11T23:31:44.220Z,-2.71
2023-02-11T23:34:17.139Z,-2.72
2023-02-11T23:36:45.199Z,-2.73
2023-02-11T23:39:15.988Z,-2.74
2023-02-11T23:41:45.418Z,-2.76
2023-02-11T23:44:13.455Z,-2.78
2023-02-11T23:46:41.630Z,-2.79
2023-02-11T23:49:09.997Z,-2.78
2023-02-11T23:51:37.905Z,-2.77
2023-02-11T23:54:05.840Z,-2.77
2023-02-11T23:56:33.836Z,-2.75
2023-02-11T23:59:01.679Z,-2.74
